Date,TemperatureHighF,TemperatureAvgF,TemperatureLowF,DewpointHighF,DewpointAvgF,DewpointLowF,HumidityHigh,HumidityAvg,HumidityLow,PressureMaxIn,PressureMinIn,WindSpeedMaxMPH,WindSpeedAvgMPH,GustSpeedMaxMPH,PrecipitationSumIn
2013-4-24,67,65,63,18,16,15,16,15,14,0.00,40.00,8,6,26,0.00
2013-4-25,61,56,47,25,19,13,41,24,15,0.00,40.00,13,7,24,0.00
2013-4-26,67,53,33,31,21,13,64,32,13,0.00,40.00,13,5,24,0.00
2013-4-27,69,51,31,25,11,-2,49,25,6,0.00,40.00,10,4,18,0.00
2013-4-28,75,56,34,27,14,8,46,23,9,0.00,40.00,9,4,20,0.00
2013-4-29,77,60,38,29,18,13,44,24,10,0.00,40.00,11,5,26,0.00
2013-4-30,73,64,54,22,15,8,25,15,9,0.00,40.00,14,7,32,0.00
2013-5-1,69,58,41,27,10,-13,37,16,5,0.00,40.00,12,6,21,0.00
2013-5-2,65,48,34,10,4,-5,29,17,9,0.00,40.00,12,7,22,0.00
2013-5-3,71,58,38,13,4,-2,22,12,6,0.00,40.00,11,6,21,0.00
2013-5-4,70,55,30,17,9,3,35,17,11,0.00,40.00,10,5,23,0.00
2013-5-5,63,55,49,25,18,11,28,23,17,0.00,40.00,12,7,24,0.00
2013-5-6,58,50,42,41,30,18,60,47,27,0.00,40.00,9,6,28,0.01
2013-5-7,53,45,32,42,35,31,95,68,48,0.00,40.00,12,6,22,0.16
2013-5-8,57,44,29,40,31,26,99,66,31,0.00,40.00,8,3,17,0.11
2013-5-9,57,45,31,41,33,28,94,65,38,0.00,40.00,9,4,18,0.03
2013-5-10,66,49,29,45,28,-100,98,54,25,0.00,40.00,8,4,22,0.01
2013-5-11,69,53,33,40,29,-100,90,46,20,0.00,40.00,9,4,22,0.00
2013-5-12,76,57,36,38,25,20,69,36,14,0.00,40.00,8,4,19,0.00
2013-5-13,79,61,40,38,25,21,55,29,13,0.00,40.00,8,4,17,0.00
2013-5-14,79,64,48,33,27,24,46,26,15,0.00,40.00,14,5,34,0.00
2013-5-15,74,63,50,27,15,5,38,18,8,0.00,40.00,10,6,29,0.00
2013-5-16,74,58,56,30,5,-100,24,18,10,0.00,40.00,12,6,27,0.00
2013-5-17,68,59,51,31,21,-100,37,27,16,0.00,40.00,11,6,30,0.00
2013-5-18,67,54,34,35,28,23,74,39,21,0.00,40.00,11,5,23,0.00
2013-5-19,71,57,40,32,24,17,64,33,15,0.00,40.00,16,8,34,0.00
2013-5-20,65,51,32,34,24,18,71,38,20,0.00,40.00,10,6,24,0.00
2013-5-21,74,57,33,37,22,15,72,32,13,0.00,40.00,11,5,24,0.00
2013-5-22,75,65,56,26,21,12,29,19,12,0.00,40.00,11,7,40,0.00
2013-5-23,73,63,54,27,22,14,34,21,13,0.00,40.00,13,8,31,0.00
2013-5-24,73,59,34,28,15,8,42,20,9,0.00,40.00,10,6,23,0.00
2013-5-25,74,64,56,22,14,0,26,15,9,0.00,40.00,10,7,29,0.00
2013-5-26,74,62,51,24,16,8,23,17,12,0.00,40.00,9,6,25,0.00
2013-5-27,73,60,42,28,20,14,43,22,14,0.00,40.00,9,5,20,0.00
2013-5-28,71,60,42,32,28,19,43,30,20,0.00,40.00,10,6,27,0.00
2013-5-29,73,57,37,40,28,25,68,37,19,0.00,40.00,15,7,31,0.00
2013-5-30,77,65,50,40,34,27,54,33,22,0.00,40.00,11,6,24,0.00
2013-5-31,81,67,51,44,36,17,63,35,14,0.00,40.00,8,5,19,0.00
2013-6-1,83,66,46,25,20,12,29,18,10,0.00,40.00,8,5,18,0.00
2013-6-2,83,68,46,40,26,21,45,23,11,0.00,40.00,9,5,24,0.00
2013-6-3,81,68,45,46,27,22,60,25,12,0.00,40.00,8,4,25,0.00
2013-6-4,80,68,46,36,22,17,43,18,11,0.00,40.00,11,5,24,0.00
2013-6-5,83,67,44,41,25,17,50,23,12,0.00,40.00,10,4,20,0.00
2013-6-6,86,68,48,40,24,18,41,22,9,0.00,40.00,10,5,20,0.00
2013-6-7,87,69,48,40,21,11,38,20,6,0.00,40.00,10,4,21,0.00
2013-6-8,91,73,49,40,23,18,35,18,9,0.00,40.00,13,6,24,0.00
2013-6-9,90,75,54,35,27,18,44,19,10,0.00,40.00,10,5,22,0.00
2013-6-10,84,72,49,38,15,4,42,14,6,0.00,40.00,11,6,28,0.00
2013-6-11,85,72,62,35,26,12,29,19,9,0.00,40.00,10,6,23,0.00
2013-6-12,88,70,46,39,26,23,44,22,12,0.00,40.00,11,4,26,0.00
2013-6-13,84,74,60,40,33,25,31,22,15,0.00,40.00,13,6,30,0.00
2013-6-14,83,68,47,31,27,23,39,24,14,0.00,40.00,12,5,24,0.00
2013-6-15,81,72,57,40,32,25,40,24,17,0.00,40.00,10,6,26,0.00
2013-6-16,82,68,46,33,27,21,53,25,13,0.00,40.00,10,5,26,0.00
2013-6-17,83,65,43,30,18,3,45,20,5,0.00,40.00,10,4,24,0.00
2013-6-18,83,67,44,23,16,8,34,16,9,0.00,40.00,9,5,22,0.00
2013-6-19,80,70,62,26,18,8,22,14,10,0.00,40.00,11,7,27,0.00
2013-6-20,81,68,54,23,19,16,25,16,11,0.00,40.00,11,6,29,0.00
2013-6-21,81,79,76,23,21,18,12,11,11,0.00,40.00,9,8,26,0.00
2013-6-22,81,73,59,30,24,17,20,16,12,0.00,40.00,12,7,25,0.00
2013-6-23,80,65,41,28,21,13,47,22,9,0.00,40.00,10,5,26,0.00
2013-6-24,76,67,59,36,27,22,35,23,14,0.00,40.00,12,7,27,0.00
2013-6-25,81,70,60,34,26,14,32,19,14,0.00,40.00,9,6,23,0.00
2013-6-26,86,73,52,30,24,18,30,17,11,0.00,40.00,9,5,19,0.00
2013-6-27,92,73,50,42,32,21,61,27,9,0.00,40.00,11,4,19,0.00
2013-6-28,92,74,56,43,35,28,49,26,11,0.00,40.00,12,5,24,0.00
2013-6-29,93,75,57,43,36,30,42,27,13,0.00,40.00,10,4,20,0.00
2013-6-30,93,74,56,44,38,33,46,29,15,0.00,40.00,10,5,26,0.00
2013-7-1,90,76,59,47,41,36,45,30,18,0.00,40.00,10,5,21,0.00
2013-7-2,88,70,58,63,48,37,93,49,26,0.00,40.00,11,5,35,0.19
2013-7-3,86,73,59,58,48,41,86,44,26,0.00,40.00,11,6,29,0.03
2013-7-4,88,75,60,49,46,43,62,38,24,0.00,40.00,9,5,24,0.00
2013-7-5,83,75,63,52,49,44,56,40,29,0.00,40.00,11,5,22,0.00
2013-7-6,84,66,53,58,51,47,96,62,30,0.00,40.00,10,4,20,0.15
2013-7-7,86,69,50,62,48,38,99,56,24,0.00,40.00,11,4,22,0.15
2013-7-8,88,68,53,52,39,-100,65,40,18,0.00,40.00,9,4,19,0.00
2013-7-9,90,74,56,44,35,28,45,27,13,0.00,40.00,10,5,20,0.00
2013-7-10,85,66,58,57,44,-100,95,53,20,0.00,40.00,12,4,21,0.10
2013-7-11,74,65,57,66,58,54,93,77,50,0.00,40.00,7,4,17,0.19
2013-7-12,75,62,50,62,54,50,100,78,52,0.00,40.00,7,3,17,0.06
2013-7-13,78,66,51,62,53,51,100,68,41,0.00,40.00,9,3,20,0.01
2013-7-14,81,65,54,59,52,47,91,66,31,0.00,40.00,6,3,17,0.11
2013-7-15,79,64,52,59,53,47,92,70,39,0.00,40.00,7,3,19,0.18
2013-7-16,77,64,57,58,55,52,99,76,44,0.00,40.00,7,3,20,0.35
2013-7-17,76,65,53,59,56,52,99,75,45,0.00,40.00,7,4,15,0.04
2013-7-18,77,63,55,61,57,50,99,82,45,0.00,40.00,8,3,21,1.04
2013-7-19,79,63,53,62,56,51,100,80,39,0.00,40.00,6,3,14,0.20
2013-7-20,79,65,53,64,48,-100,99,72,44,0.00,40.00,7,4,16,0.17
2013-7-21,73,63,56,62,58,54,99,83,60,0.00,40.00,9,4,19,0.48
2013-7-22,74,62,57,62,59,54,100,91,53,0.00,40.00,7,3,12,0.59
2013-7-23,75,62,53,63,57,53,100,88,54,0.00,40.00,8,4,15,0.36
2013-7-24,80,66,53,70,57,52,100,77,41,0.00,40.00,7,3,22,0.16
2013-7-25,82,66,57,61,58,52,98,79,46,0.00,40.00,7,3,15,0.34
2013-7-26,78,66,56,63,58,54,99,77,53,0.00,40.00,13,4,26,0.01
2013-7-27,74,64,55,59,49,-100,98,74,51,0.00,40.00,10,4,17,0.30
2013-7-28,74,62,53,63,56,53,100,84,49,0.00,40.00,11,4,24,0.50
2013-7-29,78,66,50,58,51,44,100,65,34,0.00,40.00,8,4,24,0.03
2013-7-30,81,66,51,56,49,44,83,57,34,0.00,40.00,8,4,19,0.00
2013-7-31,83,69,53,59,50,47,84,55,31,0.00,40.00,10,4,18,0.00
2013-8-1,80,72,60,58,53,46,70,52,42,0.00,40.00,9,6,21,0.00
2013-8-2,80,71,58,58,51,43,85,52,28,0.00,40.00,8,5,22,0.00
2013-8-3,81,70,53,55,48,43,90,49,29,0.00,40.00,9,4,21,0.00
2013-8-4,80,68,58,61,48,43,79,50,31,0.00,40.00,8,4,17,0.00
2013-8-5,81,68,48,55,42,36,66,42,24,0.00,40.00,7,4,18,0.00
2013-8-6,70,61,56,55,49,42,95,67,43,0.00,40.00,6,3,16,0.13
2013-8-7,77,64,50,56,48,37,99,63,32,0.00,40.00,9,4,17,0.08
2013-8-8,80,64,45,48,36,29,75,40,20,0.00,40.00,8,4,17,0.00
2013-8-9,81,64,43,44,33,29,64,35,18,0.00,40.00,8,4,25,0.00
2013-8-10,79,66,47,36,32,27,62,32,17,0.00,40.00,8,5,19,0.00
2013-8-11,80,68,53,48,43,33,64,41,26,0.00,40.00,10,7,20,0.00
2013-8-12,81,69,51,52,41,35,76,40,24,0.00,40.00,11,5,21,0.00
2013-8-13,84,66,47,47,34,-100,68,35,19,0.00,40.00,6,4,20,0.00
2013-8-14,83,66,47,46,38,-100,73,42,22,0.00,40.00,10,4,24,0.00
2013-8-15,76,64,56,51,42,-100,67,50,34,0.00,40.00,7,3,16,0.00
2013-8-16,87,66,51,57,44,-100,82,52,25,0.00,40.00,12,4,24,0.00
2013-8-17,85,64,54,59,48,-100,93,62,24,0.00,40.00,13,4,22,0.12
2013-8-18,83,67,53,55,49,42,86,56,27,0.00,40.00,9,4,19,0.08
2013-8-19,79,58,51,58,46,-100,99,75,37,0.00,40.00,5,3,14,0.50
2013-8-20,82,64,47,60,50,46,99,67,32,0.00,40.00,6,3,23,0.02
2013-8-21,72,65,58,59,52,47,87,63,47,0.00,40.00,7,3,19,0.03
2013-8-22,76,62,53,60,53,49,96,75,41,0.00,40.00,9,3,19,0.30
2013-8-23,77,63,53,57,51,47,98,68,36,0.00,40.00,8,4,18,0.08
2013-8-24,72,59,51,58,50,-100,93,75,45,0.00,40.00,10,4,18,0.08
2013-8-25,61,57,54,58,54,51,99,91,84,0.00,40.00,7,3,15,0.33
2013-8-26,73,62,57,63,57,54,99,86,61,0.00,40.00,10,5,17,0.62
2013-8-27,74,60,55,60,56,54,99,89,54,0.00,40.00,9,4,17,0.92
2013-8-28,79,66,53,64,56,50,98,76,38,0.00,40.00,8,4,15,0.32
2013-8-29,74,61,51,63,57,51,100,89,62,0.00,40.00,6,2,11,0.12
2013-8-30,72,61,55,63,59,54,99,92,72,0.00,40.00,7,2,14,0.25
2013-8-31,68,60,55,63,57,-100,100,92,70,0.00,40.00,5,2,11,0.37
2013-9-1,76,62,53,64,56,52,100,83,54,0.00,40.00,8,3,18,0.03
2013-9-2,79,64,49,64,52,46,99,70,35,0.00,40.00,8,3,17,0.00
2013-9-3,81,69,52,56,51,48,87,57,35,0.00,40.00,8,4,17,0.00
2013-9-4,80,66,56,60,54,47,87,66,36,0.00,40.00,8,3,20,0.00
2013-9-5,81,66,50,61,49,44,95,62,27,0.00,40.00,7,3,17,0.00
2013-9-6,81,65,53,58,49,39,85,61,25,0.00,40.00,8,3,19,0.00
2013-9-7,75,63,56,61,52,-100,96,72,50,0.00,40.00,8,3,18,0.00
2013-9-8,64,58,53,58,55,52,98,89,70,0.00,40.00,8,3,16,0.05
2013-9-9,61,56,50,56,53,49,99,91,68,0.00,40.00,8,3,17,0.08
2013-9-10,64,56,48,57,52,48,99,88,65,0.00,40.00,6,2,15,0.22
2013-9-11,65,55,45,57,52,45,99,90,61,0.00,40.00,6,3,15,0.27
2013-9-12,72,56,42,56,46,42,99,74,41,0.00,40.00,6,3,11,0.03
2013-9-13,74,59,44,59,46,41,99,68,31,0.00,40.00,8,3,16,0.00
2013-9-14,75,59,46,54,46,-100,97,69,36,0.00,40.00,8,3,16,0.00
2013-9-15,78,60,45,50,46,44,98,67,33,0.00,40.00,6,2,14,0.00
2013-9-16,79,62,45,50,46,38,96,62,25,0.00,40.00,8,3,17,0.00
2013-9-17,77,66,48,55,49,44,95,58,38,0.00,40.00,8,4,19,0.00
2013-9-18,67,59,45,44,38,32,61,45,37,0.00,40.00,5,3,14,0.00
2013-9-19,77,58,39,41,36,32,85,51,21,0.00,40.00,7,3,17,0.00
2013-9-20,77,60,40,44,38,31,86,50,23,0.00,40.00,10,4,23,0.00
2013-9-21,73,63,51,51,44,-100,76,50,38,0.00,40.00,9,6,22,0.01
2013-9-22,63,56,36,47,32,18,67,43,18,0.00,40.00,15,8,30,0.01
2013-9-23,72,50,31,39,21,-100,87,45,16,0.00,40.00,6,3,12,0.00
2013-9-24,74,59,34,40,29,23,78,36,18,0.00,40.00,7,4,19,0.00
2013-9-25,69,61,55,36,30,24,46,32,22,0.00,40.00,12,8,30,0.00
2013-9-26,66,56,46,37,31,15,55,39,25,0.00,40.00,12,10,36,0.00
2013-9-27,58,45,31,27,20,13,74,40,17,0.00,40.00,8,5,17,0.00
2013-9-28,68,45,24,26,20,-100,78,44,18,0.00,40.00,8,3,17,0.00
2013-9-29,72,51,30,31,25,21,75,42,18,0.00,40.00,7,4,18,0.00
2013-9-30,73,54,33,32,23,18,67,36,14,0.00,40.00,8,4,17,0.00
2013-10-1,69,57,45,26,24,21,46,29,17,0.00,40.00,7,4,20,0.00
2013-10-2,70,56,38,37,28,20,74,36,17,0.00,40.00,9,5,26,0.00
2013-10-3,66,56,42,40,31,19,62,40,22,0.00,40.00,10,6,26,0.00
2013-10-4,58,43,28,21,14,7,63,35,14,0.00,40.00,8,5,18,0.00
2013-10-5,59,44,29,19,15,7,51,32,19,0.00,40.00,9,6,20,0.00
2013-10-6,73,48,21,19,12,4,56,29,11,0.00,40.00,7,4,16,0.00
2013-10-7,75,56,32,24,17,14,49,25,10,0.00,40.00,6,4,19,0.00
2013-10-8,67,58,52,26,20,14,36,23,15,0.00,40.00,9,7,24,0.00
2013-10-9,58,52,46,35,28,22,63,41,26,0.00,40.00,16,10,36,0.00
2013-10-10,46,36,28,37,32,27,97,86,60,0.00,40.00,9,4,36,0.59
2013-10-11,57,39,25,38,29,24,97,74,30,0.00,40.00,6,2,13,0.01
2013-10-12,62,47,28,34,26,-100,93,51,23,0.00,40.00,7,4,16,0.01
2013-10-13,60,51,43,32,28,23,52,41,29,0.00,40.00,10,6,28,0.00
2013-10-14,58,41,25,29,22,17,83,54,21,0.00,40.00,8,3,14,0.00
2013-10-15,58,40,25,32,21,13,87,55,17,0.00,40.00,10,4,21,0.00
2013-10-16,59,40,24,26,21,16,89,53,20,0.00,40.00,7,4,14,0.00
2013-10-17,63,41,21,28,12,5,77,39,11,0.00,40.00,7,3,15,0.00
2013-10-18,63,43,27,24,15,6,70,39,12,0.00,40.00,7,4,19,0.00
2013-10-19,65,42,25,27,11,-100,70,36,11,0.00,40.00,8,4,15,0.00
2013-10-20,68,45,26,26,13,9,66,35,10,0.00,40.00,8,4,17,0.00
2013-10-21,66,47,28,20,16,11,61,33,13,0.00,40.00,7,4,16,0.00
2013-10-22,68,49,30,25,17,11,58,31,13,0.00,40.00,8,4,14,0.00
2013-10-23,70,51,28,27,18,13,67,33,12,0.00,40.00,8,3,14,0.00
2013-10-24,68,55,35,31,21,17,47,28,17,0.00,40.00,9,5,21,0.00
2013-10-25,66,46,28,35,22,15,72,44,18,0.00,40.00,8,3,16,0.00
2013-10-26,67,47,29,35,25,-100,86,49,21,0.00,40.00,6,3,14,0.00
2013-10-27,66,52,31,36,26,22,81,40,19,0.00,40.00,10,5,22,0.00
2013-10-28,54,48,45,30,24,-100,51,40,34,0.00,40.00,11,9,31,0.00
2013-10-29,45,39,27,35,28,22,91,65,43,0.00,40.00,10,6,31,0.03
2013-10-30,48,33,22,31,25,19,96,76,37,0.00,40.00,8,3,19,0.01
2013-10-31,54,35,20,27,20,17,93,63,23,0.00,40.00,9,3,16,0.00
2013-11-1,63,40,27,28,13,-100,74,45,18,0.00,40.00,7,4,14,0.00
2013-11-2,66,50,27,28,12,-100,62,26,13,0.00,40.00,9,5,19,0.00
2013-11-3,58,48,30,28,20,8,57,32,18,0.00,40.00,11,6,26,0.00
2013-11-4,52,39,22,27,20,14,75,49,35,0.00,40.00,8,4,20,0.00
2013-11-5,50,33,19,29,17,5,96,59,18,0.00,40.00,9,3,14,0.00
2013-11-6,61,39,15,8,1,-14,63,26,5,0.00,40.00,8,4,16,0.00
2013-11-7,63,48,27,12,6,-1,37,19,10,0.00,40.00,12,6,21,0.00
2013-11-8,63,44,27,19,13,4,54,31,15,0.00,40.00,7,4,17,0.00
2013-11-9,63,40,25,29,17,-100,76,46,17,0.00,40.00,7,2,15,0.00
2013-11-10,65,44,28,29,23,17,72,49,22,0.00,40.00,7,2,13,0.00
2013-11-11,68,45,25,26,18,10,80,41,13,0.00,40.00,9,3,18,0.00
2013-11-12,68,54,31,18,14,10,48,23,12,0.00,40.00,10,6,17,0.00
2013-11-13,65,49,34,30,22,14,61,36,19,0.00,40.00,10,4,19,0.00
2013-11-14,62,45,28,31,20,14,72,43,16,0.00,40.00,8,4,18,0.00
2013-11-15,55,48,40,37,31,24,83,54,40,0.00,40.00,10,7,26,0.00
2013-11-16,49,41,37,38,33,-100,89,75,50,0.00,40.00,9,6,25,0.00
2013-11-17,54,39,25,36,29,23,93,71,42,0.00,40.00,7,3,15,0.00
2013-11-18,60,40,22,35,28,15,93,64,34,0.00,40.00,7,3,14,0.00
2013-11-19,56,44,30,36,32,23,93,65,37,0.00,40.00,10,4,20,0.00
2013-11-20,46,39,31,38,35,29,95,85,62,0.00,40.00,6,3,15,0.14
2013-11-21,44,41,37,39,36,31,90,84,73,0.00,40.00,10,5,24,0.19
2013-11-22,39,36,33,37,34,31,96,93,87,0.00,40.00,8,5,25,0.99
2013-11-23,38,34,32,36,30,-100,94,90,83,0.00,40.00,10,5,25,0.39
2013-11-24,35,32,27,33,30,26,97,93,85,0.00,40.00,4,1,8,0.26
2013-11-25,47,35,27,34,26,17,97,75,37,0.00,40.00,7,3,16,0.01
2013-11-26,55,35,22,34,24,20,92,70,28,0.00,40.00,7,3,15,0.00
2013-11-27,47,37,33,29,25,19,80,62,33,0.00,40.00,10,7,23,0.00
2013-11-28,53,34,22,28,21,18,87,64,29,0.00,40.00,9,4,18,0.00
2013-11-29,52,34,23,30,24,20,94,72,37,0.00,40.00,6,3,15,0.00
2013-11-30,54,31,23,40,18,-100,95,74,42,0.00,40.00,7,2,15,0.00
2013-12-1,54,34,25,41,24,19,93,71,25,0.00,40.00,5,2,14,0.00
2013-12-2,60,41,25,28,20,11,76,49,17,0.00,40.00,8,5,18,0.00
2013-12-3,47,44,41,16,13,8,35,28,20,0.00,40.00,9,7,27,0.00